KAKO/AKO METAR and TAF weather

Enter ICAO airport designator
Station Type Date Time Source
KAKO METAR 2020/01/18 20:53 UTC NOAA

KAKO 182053Z AUTO 15005KT 10SM CLR 01/M13 A3028 RMK AO2 SLP284 T00111128 56013


Station Type Date Time Source
KAKO Decoded METAR 2020/01/18 20:53 UTC NOAA

COLORADO PLAINS REGIONAL, CO, United States (KAKO) 40-10N 103-13W 1421M
Jan 18, 2020 - 03:53 PM EST / 2020.01.18 2053 UTC
Wind: from the SSE (150 degrees) at 6 MPH (5 KT):0
Visibility: 10 mile(s):0
Sky conditions: clear
Temperature: 34.0 F (1.1 C)
Windchill: 28 F (-2 C):1
Dew Point: 9.0 F (-12.8 C)
Relative Humidity: 34%
Pressure (altimeter): 30.28 in. Hg (1025 hPa)
Pressure tendency: 0.04 inches (1.3 hPa) lower than three hours ago
ob: KAKO 182053Z AUTO 15005KT 10SM CLR 01/M13 A3028 RMK AO2 SLP284 T00111128 56013
cycle: 21

Station Type Date Time Source
KAKO TAF UTC NOAA

Error!

Example: see airport list